Time;durP1;ratioP1;P1;durP2;ratioP2;P2;SDS_P1;SDS_P2;PMS_P1;PMS_P2;Temp;Humidity;BMP_temperature;BMP_pressure;BME280_temperature;BME280_humidity;BME280_pressure;Samples;Min_cycle;Max_cycle;Signal;HPM_P1;HPM_P2
2022/11/07 11:53:07;;;;;;;6.38;3.13;;;20.50;63.10;;;;;;5122835;27;20434;-79
2022/11/07 11:55:43;;;;;;;9.45;3.30;;;20.60;63.60;;;;;;5124271;27;20020;-77
2022/11/07 11:58:24;;;;;;;11.52;3.80;;;20.70;63.10;;;;;;5091870;28;20443;-79
2022/11/07 12:01:02;;;;;;;14.18;4.30;;;20.70;63.20;;;;;;5089005;28;20032;-79
2022/11/07 12:03:58;;;;;;;5.95;3.30;;;20.70;64.20;;;;;;5087756;28;20032;-79
2022/11/07 12:06:35;;;;;;;7.43;3.42;;;20.70;62.60;;;;;;5078528;28;20485;-79
2022/11/07 12:09:07;;;;;;;8.18;3.50;;;20.70;62.10;;;;;;5087683;28;20401;-78
2022/11/07 12:11:37;;;;;;;8.13;3.20;;;20.70;62.80;;;;;;5092655;28;20035;-79
2022/11/07 12:14:25;;;;;;;11.93;3.30;;;20.70;62.50;;;;;;5076964;28;20115;-79
2022/11/07 12:17:14;;;;;;;19.50;4.45;;;20.70;64.00;;;;;;5095665;28;20040;-77
2022/11/07 12:20:04;;;;;;;15.43;4.03;;;20.70;62.40;;;;;;5094291;28;20032;-79
2022/11/07 12:22:38;;;;;;;13.93;4.22;;;20.70;61.70;;;;;;5088350;28;20736;-81
2022/11/07 12:25:12;;;;;;;18.90;4.20;;;20.70;63.90;;;;;;5095059;28;20107;-74
2022/11/07 12:27:47;;;;;;;23.65;7.50;;;20.70;63.00;;;;;;5097895;28;20024;-83
2022/11/07 12:30:20;;;;;;;52.17;35.00;;;20.70;61.20;;;;;;5078729;28;20119;-77
2022/11/07 12:32:55;;;;;;;83.22;61.33;;;20.60;60.70;;;;;;5100733;28;20031;-77
2022/11/07 12:35:42;;;;;;;46.35;29.20;;;20.60;60.70;;;;;;5108667;28;20032;-78
2022/11/07 12:38:46;;;;;;;43.75;29.15;;;20.60;61.80;;;;;;5117269;28;20055;-77
2022/11/07 12:41:40;;;;;;;44.40;31.02;;;20.70;60.30;;;;;;5102221;28;20028;-77
2022/11/07 12:44:10;;;;;;;47.63;29.33;;;20.70;61.20;;;;;;5098518;28;20060;-79
2022/11/07 12:46:48;;;;;;;48.28;30.10;;;20.70;61.30;;;;;;5107732;28;20028;-79
2022/11/07 12:49:45;;;;;;;51.03;32.03;;;20.70;61.50;;;;;;5107878;28;20503;-80
2022/11/07 12:52:30;;;;;;;41.95;28.50;;;20.70;61.80;;;;;;5106881;28;20431;-78
2022/11/07 12:55:03;;;;;;;56.63;33.45;;;20.70;62.00;;;;;;5095129;28;20031;-78
2022/11/07 12:57:36;;;;;;;51.47;31.42;;;20.80;62.80;;;;;;5093850;28;20024;-79
2022/11/07 13:00:19;;;;;;;51.38;32.05;;;20.70;62.90;;;;;;5099037;28;20028;-79
2022/11/07 13:03:19;;;;;;;40.58;21.25;;;20.80;62.80;;;;;;5090063;28;20036;-79
2022/11/07 13:06:09;;;;;;;38.05;22.25;;;20.70;61.60;;;;;;5096414;28;20084;-77
2022/11/07 13:09:00;;;;;;;37.13;21.05;;;20.60;58.90;;;;;;5099866;28;20032;-77
2022/11/07 13:11:48;;;;;;;38.88;21.40;;;20.60;59.90;;;;;;5074863;28;20028;-76
2022/11/07 13:14:29;;;;;;;41.22;23.90;;;20.60;60.00;;;;;;5083018;28;20032;-77
2022/11/07 13:17:22;;;;;;;46.53;23.55;;;20.70;60.00;;;;;;5092115;28;20028;-77
2022/11/07 13:20:00;;;;;;;35.83;20.42;;;20.70;60.20;;;;;;5088978;28;20047;-77
2022/11/07 13:22:38;;;;;;;37.53;21.67;;;20.70;60.30;;;;;;5087582;28;20103;-77
2022/11/07 13:25:09;;;;;;;43.65;23.40;;;20.70;60.50;;;;;;5085931;28;20054;-77
2022/11/07 13:27:38;;;;;;;35.10;20.33;;;20.70;60.50;;;;;;5093774;28;20020;-76
2022/11/07 13:30:13;;;;;;;33.47;20.40;;;20.70;60.30;;;;;;5084512;28;20472;-76
2022/11/07 13:32:43;;;;;;;39.53;20.27;;;20.70;60.50;;;;;;5086652;28;20028;-78
2022/11/07 13:35:24;;;;;;;38.33;21.48;;;20.70;60.60;;;;;;5090724;28;20032;-78
2022/11/07 13:37:57;;;;;;;36.95;19.92;;;20.70;60.80;;;;;;5093580;28;20028;-77
2022/11/07 13:40:39;;;;;;;38.53;19.75;;;20.70;60.90;;;;;;5094232;28;20082;-78
2022/11/07 13:43:16;;;;;;;35.80;19.63;;;20.70;60.90;;;;;;5093752;28;20550;-77
2022/11/07 13:45:47;;;;;;;38.15;21.17;;;20.70;61.10;;;;;;5094348;28;20488;-78
2022/11/07 13:48:33;;;;;;;45.03;21.35;;;20.70;61.30;;;;;;5094003;28;20028;-77
2022/11/07 13:51:30;;;;;;;41.55;20.88;;;20.70;61.40;;;;;;5094491;28;20048;-77
2022/11/07 13:54:26;;;;;;;39.28;20.52;;;20.70;61.70;;;;;;5095761;28;20028;-77
2022/11/07 13:57:26;;;;;;;41.22;20.38;;;20.70;61.70;;;;;;5097324;28;20031;-78
2022/11/07 13:59:56;;;;;;;37.53;20.10;;;20.70;61.60;;;;;;5095191;28;20459;-77
2022/11/07 14:02:31;;;;;;;34.72;19.40;;;20.80;61.90;;;;;;5088953;28;20025;-77
2022/11/07 14:05:03;;;;;;;34.78;19.83;;;20.80;62.00;;;;;;5087480;28;20234;-77
2022/11/07 14:07:34;;;;;;;35.70;19.05;;;20.80;62.20;;;;;;5088304;28;20028;-76
2022/11/07 14:10:01;;;;;;;40.10;20.02;;;20.80;62.00;;;;;;5095439;28;20362;-77
2022/11/07 14:12:27;;;;;;;35.95;19.33;;;20.80;62.10;;;;;;5094624;28;20500;-78
2022/11/07 14:14:56;;;;;;;33.42;18.55;;;20.80;62.30;;;;;;5093671;28;20020;-79
2022/11/07 14:17:31;;;;;;;35.00;18.23;;;20.70;62.30;;;;;;5093436;28;20378;-78
2022/11/07 14:20:15;;;;;;;42.63;19.90;;;20.70;62.30;;;;;;5095264;28;20032;-78
2022/11/07 14:22:55;;;;;;;36.42;19.30;;;20.70;62.30;;;;;;5095681;28;20056;-77
2022/11/07 14:25:33;;;;;;;35.10;18.05;;;20.70;62.30;;;;;;5095600;28;20028;-77
2022/11/07 14:27:59;;;;;;;32.65;18.02;;;20.70;62.40;;;;;;5096268;28;20024;-78
2022/11/07 14:30:27;;;;;;;32.10;18.70;;;20.70;62.40;;;;;;5097791;28;20036;-77
2022/11/07 14:33:01;;;;;;;37.45;17.77;;;20.70;62.60;;;;;;5100052;28;20028;-78
2022/11/07 14:35:32;;;;;;;30.45;17.23;;;20.70;62.60;;;;;;5100163;28;20028;-78
2022/11/07 14:38:08;;;;;;;32.70;17.30;;;20.70;63.20;;;;;;5100706;28;20055;-78
2022/11/07 14:40:35;;;;;;;32.50;18.17;;;20.70;62.60;;;;;;5089101;28;20032;-77
2022/11/07 14:43:01;;;;;;;34.30;18.05;;;20.70;62.60;;;;;;5105609;28;20073;-79
2022/11/07 14:45:28;;;;;;;28.83;17.13;;;20.70;62.70;;;;;;5114292;28;20087;-79
2022/11/07 14:47:53;;;;;;;31.45;17.38;;;20.70;62.70;;;;;;5113019;28;20016;-79
2022/11/07 14:50:24;;;;;;;30.08;17.35;;;20.70;62.70;;;;;;5115329;28;20058;-79
2022/11/07 14:52:59;;;;;;;32.92;17.70;;;20.70;62.70;;;;;;5114384;28;20111;-79
2022/11/07 14:55:30;;;;;;;33.17;17.00;;;20.70;62.80;;;;;;5112118;28;20039;-78
2022/11/07 14:58:01;;;;;;;34.05;17.35;;;20.70;62.70;;;;;;5116445;28;20020;-80
2022/11/07 15:00:28;;;;;;;27.90;16.67;;;20.70;62.80;;;;;;5116302;28;20032;-79
2022/11/07 15:02:56;;;;;;;31.00;16.42;;;20.70;62.80;;;;;;5115844;28;20036;-79
2022/11/07 15:05:27;;;;;;;31.42;16.80;;;20.70;62.90;;;;;;5113514;28;20036;-78
2022/11/07 15:07:54;;;;;;;33.97;17.23;;;20.70;62.90;;;;;;5114782;28;20032;-79
2022/11/07 15:10:28;;;;;;;27.20;15.38;;;20.70;63.00;;;;;;5112825;28;20035;-79
2022/11/07 15:13:03;;;;;;;33.47;16.67;;;20.70;63.00;;;;;;5096711;28;20028;-78
2022/11/07 15:15:32;;;;;;;29.75;16.90;;;20.70;63.00;;;;;;5076047;28;20088;-79
2022/11/07 15:18:03;;;;;;;26.35;15.10;;;20.70;63.00;;;;;;5075439;28;20401;-78
2022/11/07 15:20:36;;;;;;;27.73;16.08;;;20.70;63.10;;;;;;5092640;28;20044;-78
2022/11/07 15:23:10;;;;;;;28.17;16.55;;;20.70;63.10;;;;;;5091842;28;20142;-77
2022/11/07 15:25:40;;;;;;;27.63;15.75;;;20.70;63.20;;;;;;5075685;28;20024;-77
2022/11/07 15:28:15;;;;;;;28.27;15.35;;;20.70;63.20;;;;;;5094015;28;20024;-78
2022/11/07 15:30:43;;;;;;;30.85;17.13;;;20.70;63.20;;;;;;5076036;28;20039;-77
2022/11/07 15:33:12;;;;;;;32.13;16.75;;;20.70;63.30;;;;;;5093519;28;20116;-78
2022/11/07 15:35:39;;;;;;;26.50;15.50;;;20.70;63.20;;;;;;5094422;28;20024;-77
2022/11/07 15:38:06;;;;;;;28.25;15.70;;;20.70;63.30;;;;;;5093477;28;20162;-79
2022/11/07 15:40:32;;;;;;;29.67;15.63;;;20.70;63.40;;;;;;5096407;28;20028;-76
2022/11/07 15:43:01;;;;;;;31.80;15.38;;;20.70;63.30;;;;;;5095178;28;20024;-78
2022/11/07 15:45:27;;;;;;;26.88;16.08;;;20.70;63.30;;;;;;5092854;28;20032;-78
2022/11/07 15:47:53;;;;;;;29.48;16.50;;;20.70;63.20;;;;;;5091777;28;20095;-78
2022/11/07 15:50:23;;;;;;;29.30;15.30;;;20.70;63.20;;;;;;5093974;28;20028;-78
2022/11/07 15:52:50;;;;;;;28.35;15.48;;;20.70;63.20;;;;;;5092994;28;20032;-79
2022/11/07 15:55:19;;;;;;;27.60;15.43;;;20.70;63.40;;;;;;5075341;28;20646;-78
2022/11/07 15:57:47;;;;;;;26.45;14.75;;;20.70;63.10;;;;;;5093285;28;20032;-78
2022/11/07 16:00:19;;;;;;;25.40;14.95;;;20.70;63.20;;;;;;5092407;28;20058;-79
2022/11/07 16:02:45;;;;;;;29.35;15.57;;;20.70;63.50;;;;;;5094299;28;20115;-78
2022/11/07 16:05:12;;;;;;;28.20;15.60;;;20.70;63.20;;;;;;5092501;28;20035;-78
2022/11/07 16:07:42;;;;;;;24.83;14.35;;;20.70;63.50;;;;;;5094683;28;20032;-78
2022/11/07 16:10:22;;;;;;;24.90;14.50;;;20.70;63.40;;;;;;5094461;28;20028;-77
2022/11/07 16:12:48;;;;;;;26.92;15.18;;;20.70;63.40;;;;;;5083812;28;20025;-78
2022/11/07 16:15:16;;;;;;;30.23;15.48;;;20.70;63.40;;;;;;5091413;28;20024;-78
2022/11/07 16:17:43;;;;;;;25.75;14.93;;;20.70;63.40;;;;;;5071402;28;20531;-79
2022/11/07 16:20:20;;;;;;;23.42;14.30;;;20.70;63.50;;;;;;5075552;28;20113;-78
2022/11/07 16:22:48;;;;;;;25.50;14.40;;;20.70;63.50;;;;;;5073586;28;20039;-78
2022/11/07 16:25:23;;;;;;;25.67;14.75;;;20.70;63.50;;;;;;5073510;28;20028;-80
2022/11/07 16:27:54;;;;;;;24.90;14.90;;;20.70;63.70;;;;;;5073028;28;20112;-80
2022/11/07 16:30:21;;;;;;;25.33;14.80;;;20.70;63.80;;;;;;5076406;28;20028;-79
2022/11/07 16:32:47;;;;;;;26.35;14.65;;;20.70;64.00;;;;;;5075363;28;20028;-78
2022/11/07 16:35:13;;;;;;;24.00;13.82;;;20.70;64.00;;;;;;5075111;28;20485;-77
2022/11/07 16:37:39;;;;;;;26.95;14.52;;;20.70;63.80;;;;;;5060718;28;20036;-79
2022/11/07 16:40:07;;;;;;;25.85;15.20;;;20.70;64.00;;;;;;5087886;28;20099;-78
2022/11/07 16:42:34;;;;;;;23.40;13.40;;;20.70;64.30;;;;;;5086853;22;20051;-78
2022/11/07 16:45:01;;;;;;;27.42;14.05;;;20.70;64.20;;;;;;5070621;28;20029;-79
2022/11/07 16:47:30;;;;;;;23.85;13.13;;;20.70;64.40;;;;;;5070793;28;20032;-79
2022/11/07 16:49:56;;;;;;;24.17;13.68;;;20.70;64.30;;;;;;5039513;28;20446;-78
2022/11/07 16:52:24;;;;;;;25.00;14.23;;;20.70;64.40;;;;;;5072951;28;20051;-78
2022/11/07 16:54:50;;;;;;;33.22;13.75;;;20.70;64.70;;;;;;5055614;28;20024;-78
2022/11/07 16:57:17;;;;;;;37.33;15.05;;;20.80;65.80;;;;;;5072989;28;20028;-79
2022/11/07 16:59:44;;;;;;;33.17;14.20;;;20.80;66.00;;;;;;5089884;28;20025;-79
2022/11/07 17:02:21;;;;;;;34.15;13.95;;;20.80;65.70;;;;;;5089874;28;20032;-79
2022/11/07 17:04:48;;;;;;;36.63;13.43;;;20.80;65.00;;;;;;5073856;28;20142;-79
2022/11/07 17:07:15;;;;;;;33.10;14.73;;;20.80;65.90;;;;;;5074163;28;20032;-78
2022/11/07 17:09:40;;;;;;;56.70;13.57;;;20.80;65.60;;;;;;5072883;28;20040;-79
2022/11/07 17:12:15;;;;;;;26.70;12.35;;;20.90;65.80;;;;;;5072538;28;20107;-80
2022/11/07 17:14:40;;;;;;;27.92;12.95;;;21.00;65.20;;;;;;5072437;28;20505;-80
2022/11/07 17:17:07;;;;;;;28.40;13.10;;;21.00;65.30;;;;;;5074021;28;20028;-79
2022/11/07 17:19:33;;;;;;;28.98;13.77;;;21.00;65.60;;;;;;5073850;28;20088;-80
2022/11/07 17:22:01;;;;;;;29.38;13.23;;;21.00;65.80;;;;;;5073650;28;20111;-80
2022/11/07 17:24:28;;;;;;;28.00;13.85;;;21.00;66.40;;;;;;5072154;28;20020;-80
2022/11/07 17:26:54;;;;;;;37.53;14.30;;;21.00;66.70;;;;;;5052166;28;20406;-85
2022/11/07 17:29:20;;;;;;;28.77;13.27;;;21.00;68.10;;;;;;5056550;28;20021;-85
2022/11/07 17:31:46;;;;;;;47.10;23.90;;;20.90;65.80;;;;;;5064931;28;20036;-81
2022/11/07 17:34:11;;;;;;;48.40;22.60;;;20.80;64.00;;;;;;5055466;28;20032;-81
2022/11/07 17:36:45;;;;;;;51.20;26.73;;;20.80;64.00;;;;;;5072122;28;20029;-82
2022/11/07 17:39:14;;;;;;;51.72;27.92;;;20.80;63.70;;;;;;5073335;28;20062;-81
2022/11/07 17:41:42;;;;;;;50.65;27.63;;;20.80;63.30;;;;;;5072190;28;20470;-81
2022/11/07 17:44:09;;;;;;;49.13;26.92;;;20.80;64.30;;;;;;5072040;28;20059;-81
2022/11/07 17:46:36;;;;;;;46.58;26.80;;;20.80;63.90;;;;;;5073228;28;20028;-81
2022/11/07 17:49:07;;;;;;;49.45;26.20;;;20.80;63.30;;;;;;5054260;28;20104;-81
2022/11/07 17:51:38;;;;;;;41.33;24.52;;;20.80;63.70;;;;;;5035284;28;20033;-81
2022/11/07 17:54:04;;;;;;;45.90;25.73;;;20.80;64.00;;;;;;5053382;28;20029;-81
2022/11/07 17:56:32;;;;;;;40.72;25.48;;;20.80;64.70;;;;;;5052161;28;20033;-80
2022/11/07 17:59:01;;;;;;;41.47;25.17;;;20.80;64.00;;;;;;5052083;28;20116;-81
2022/11/07 18:01:30;;;;;;;43.33;25.95;;;20.80;64.70;;;;;;5052918;28;20060;-81
2022/11/07 18:03:56;;;;;;;42.03;24.77;;;20.80;65.30;;;;;;5051755;28;20021;-81
2022/11/07 18:06:23;;;;;;;42.50;24.67;;;20.80;65.10;;;;;;5056074;28;20070;-80
2022/11/07 18:08:50;;;;;;;43.90;25.60;;;20.80;64.50;;;;;;5072946;28;20073;-79
2022/11/07 18:11:17;;;;;;;48.40;25.67;;;20.80;65.30;;;;;;5072038;28;20037;-80
2022/11/07 18:13:43;;;;;;;46.53;26.27;;;20.90;65.10;;;;;;5054750;28;20515;-78
2022/11/07 18:16:14;;;;;;;42.95;26.40;;;20.80;65.10;;;;;;5072750;28;20056;-80
2022/11/07 18:18:40;;;;;;;40.95;25.13;;;20.90;65.70;;;;;;5072625;28;20048;-78
2022/11/07 18:21:07;;;;;;;44.78;24.30;;;20.90;65.50;;;;;;5088247;28;20062;-79
2022/11/07 18:23:33;;;;;;;41.35;24.88;;;20.90;65.00;;;;;;5071072;28;20386;-84
2022/11/07 18:26:06;;;;;;;41.88;23.70;;;20.90;64.60;;;;;;5088193;28;20074;-83
2022/11/07 18:28:34;;;;;;;45.15;24.17;;;20.80;64.70;;;;;;5072527;28;20498;-81
2022/11/07 18:31:06;;;;;;;50.25;24.65;;;20.90;64.80;;;;;;5071285;28;20429;-82
2022/11/07 18:33:32;;;;;;;56.08;25.52;;;20.90;65.10;;;;;;5054420;28;20028;-81
2022/11/07 18:35:59;;;;;;;87.47;26.98;;;20.90;65.30;;;;;;5071440;28;20024;-81
2022/11/07 18:38:26;;;;;;;60.55;24.70;;;20.90;65.80;;;;;;5071052;28;20021;-83
2022/11/07 18:41:13;;;;;;;53.38;24.50;;;20.90;65.20;;;;;;5071982;28;20078;-81
2022/11/07 18:43:39;;;;;;;57.50;25.25;;;20.90;65.60;;;;;;5068927;28;20113;-81
2022/11/07 18:46:07;;;;;;;54.95;24.17;;;20.90;66.10;;;;;;5060409;28;20024;-81
2022/11/07 18:48:35;;;;;;;67.38;24.10;;;20.90;65.80;;;;;;5068604;28;20075;-82
2022/11/07 18:51:01;;;;;;;53.75;23.75;;;20.90;65.40;;;;;;5050312;28;20033;-80
2022/11/07 18:53:27;;;;;;;61.85;23.23;;;20.90;65.70;;;;;;5050805;28;20029;-82
2022/11/07 18:56:02;;;;;;;58.40;24.75;;;20.90;65.40;;;;;;5052519;28;20033;-83
2022/11/07 18:58:54;;;;;;;63.00;23.95;;;20.90;65.20;;;;;;5066816;28;20061;-83
2022/11/07 19:01:25;;;;;;;46.92;22.98;;;20.90;65.00;;;;;;5051588;28;20426;-83
2022/11/07 19:03:51;;;;;;;49.20;22.10;;;20.80;65.10;;;;;;5051826;28;20021;-83
2022/11/07 19:06:19;;;;;;;49.72;23.35;;;20.80;65.10;;;;;;5050768;28;20081;-83
2022/11/07 19:08:46;;;;;;;47.22;23.92;;;20.80;65.20;;;;;;5034093;28;20029;-83
2022/11/07 19:11:14;;;;;;;61.40;23.95;;;20.80;65.30;;;;;;5051811;28;20108;-83
2022/11/07 19:13:43;;;;;;;51.58;22.88;;;20.80;65.30;;;;;;5017695;28;20033;-82
2022/11/07 19:16:11;;;;;;;54.25;23.20;;;20.80;65.20;;;;;;5051791;28;20441;-82
2022/11/07 19:18:37;;;;;;;42.10;21.88;;;20.80;65.10;;;;;;5050637;28;20033;-83
2022/11/07 19:21:03;;;;;;;46.28;21.83;;;20.80;65.20;;;;;;5051622;28;20433;-83
2022/11/07 19:23:30;;;;;;;42.83;20.98;;;20.80;65.10;;;;;;5033711;28;20033;-83
2022/11/07 19:25:56;;;;;;;46.30;23.08;;;20.80;65.10;;;;;;5051695;28;20025;-83
2022/11/07 19:28:22;;;;;;;45.30;22.08;;;20.80;65.00;;;;;;5051654;28;20031;-84
2022/11/07 19:30:48;;;;;;;43.17;21.17;;;20.80;65.10;;;;;;5050405;28;20032;-83
2022/11/07 19:33:14;;;;;;;42.67;21.55;;;20.80;65.10;;;;;;5050476;28;20078;-84
2022/11/07 19:35:41;;;;;;;42.28;21.38;;;20.80;65.00;;;;;;5050411;28;20059;-84
2022/11/07 19:38:08;;;;;;;42.58;20.00;;;20.80;65.00;;;;;;5050440;28;20087;-83
2022/11/07 19:40:35;;;;;;;37.20;19.70;;;20.80;65.00;;;;;;5050060;28;20474;-83
2022/11/07 19:43:01;;;;;;;40.78;20.27;;;20.80;64.90;;;;;;5051239;28;20056;-83
2022/11/07 19:45:27;;;;;;;38.33;20.05;;;20.80;64.90;;;;;;5051473;28;20529;-83
2022/11/07 19:47:54;;;;;;;42.05;20.23;;;20.80;65.00;;;;;;5050243;28;20113;-82
2022/11/07 19:50:21;;;;;;;38.40;20.25;;;20.80;64.90;;;;;;5051267;28;20037;-82
2022/11/07 19:52:48;;;;;;;38.53;20.23;;;20.80;64.90;;;;;;5049889;28;20041;-82
2022/11/07 19:55:15;;;;;;;33.05;19.30;;;20.80;64.90;;;;;;5051343;28;20036;-83
2022/11/07 19:57:40;;;;;;;36.47;19.30;;;20.80;64.90;;;;;;5050029;28;20475;-83
2022/11/07 20:00:07;;;;;;;43.55;20.80;;;20.80;64.80;;;;;;5050195;28;20037;-82
2022/11/07 20:02:33;;;;;;;41.13;20.30;;;20.80;64.90;;;;;;5054102;28;20036;-81
2022/11/07 20:04:59;;;;;;;43.55;20.75;;;20.80;64.70;;;;;;5063186;28;20081;-85
2022/11/07 20:07:25;;;;;;;40.35;18.77;;;20.80;64.80;;;;;;5072337;28;20020;-81
2022/11/07 20:09:50;;;;;;;40.53;19.40;;;20.80;65.10;;;;;;5073153;28;20060;-79
2022/11/07 20:12:16;;;;;;;47.55;20.33;;;20.80;65.00;;;;;;5063179;28;20036;-80
2022/11/07 20:14:42;;;;;;;37.92;19.17;;;20.80;65.10;;;;;;5068434;28;20028;-80
2022/11/07 20:17:08;;;;;;;43.78;19.02;;;20.80;64.70;;;;;;5051122;28;20132;-81
2022/11/07 20:19:34;;;;;;;46.63;18.20;;;20.80;64.50;;;;;;5066184;28;20025;-81
2022/11/07 20:22:00;;;;;;;32.78;16.20;;;20.80;64.00;;;;;;5062294;28;20039;-81
2022/11/07 20:24:26;;;;;;;32.25;16.95;;;20.80;63.80;;;;;;5070215;28;20104;-79
2022/11/07 20:26:52;;;;;;;30.25;16.88;;;20.80;63.90;;;;;;5065857;28;20025;-79
2022/11/07 20:29:19;;;;;;;33.42;17.33;;;20.80;64.00;;;;;;5071841;28;20082;-81
2022/11/07 20:31:45;;;;;;;35.35;16.80;;;20.80;64.10;;;;;;5073389;28;20039;-80
2022/11/07 20:34:14;;;;;;;34.67;17.85;;;20.80;64.30;;;;;;5074402;28;20024;-81
2022/11/07 20:36:40;;;;;;;31.38;16.05;;;20.80;64.40;;;;;;5054351;28;20374;-82
2022/11/07 20:39:06;;;;;;;34.95;16.38;;;20.80;64.40;;;;;;5071191;28;20446;-81
2022/11/07 20:41:33;;;;;;;38.42;17.10;;;20.80;64.50;;;;;;5074414;28;20078;-78
2022/11/07 20:44:02;;;;;;;32.95;16.90;;;20.80;64.50;;;;;;5072943;28;20086;-80
2022/11/07 20:46:30;;;;;;;38.88;16.77;;;20.80;64.90;;;;;;5066771;28;20054;-80
2022/11/07 20:49:05;;;;;;;33.75;16.30;;;20.90;64.90;;;;;;5074274;28;20025;-81
2022/11/07 20:51:32;;;;;;;31.88;16.02;;;20.90;64.60;;;;;;5073147;28;20032;-81
2022/11/07 20:53:58;;;;;;;39.90;15.93;;;20.90;64.70;;;;;;5072733;28;20027;-81
2022/11/07 20:56:25;;;;;;;32.17;16.48;;;20.90;65.30;;;;;;5074180;28;20051;-79
2022/11/07 20:58:51;;;;;;;27.80;15.38;;;20.90;65.30;;;;;;5069673;28;20025;-80
2022/11/07 21:01:23;;;;;;;32.00;16.30;;;20.90;65.60;;;;;;5069236;28;20419;-80
2022/11/07 21:03:49;;;;;;;31.33;16.17;;;20.90;65.70;;;;;;5036397;28;20490;-80
2022/11/07 21:06:16;;;;;;;38.80;15.82;;;20.90;65.70;;;;;;5072231;28;20393;-80
2022/11/07 21:08:45;;;;;;;30.80;16.60;;;20.90;67.30;;;;;;5066429;28;20097;-80
2022/11/07 21:11:14;;;;;;;30.23;17.27;;;21.00;69.90;;;;;;5069530;28;20028;-77
2022/11/07 21:13:41;;;;;;;32.78;16.27;;;21.00;67.80;;;;;;5053804;28;20056;-79
2022/11/07 21:16:08;;;;;;;33.10;17.23;;;21.10;67.10;;;;;;5069671;28;20047;-78
2022/11/07 21:18:35;;;;;;;31.50;16.67;;;21.10;67.90;;;;;;5070705;28;20397;-78
2022/11/07 21:21:09;;;;;;;29.90;17.00;;;21.00;67.30;;;;;;5070736;28;20131;-79
2022/11/07 21:23:36;;;;;;;35.05;16.67;;;21.00;66.10;;;;;;5069038;28;20031;-79
2022/11/07 21:26:07;;;;;;;30.40;16.58;;;21.00;67.30;;;;;;5065076;28;20021;-78
2022/11/07 21:28:33;;;;;;;29.40;16.33;;;21.00;66.50;;;;;;5083852;28;20049;-79
2022/11/07 21:31:01;;;;;;;26.45;16.52;;;21.00;66.50;;;;;;5069839;28;20044;-78
2022/11/07 21:33:27;;;;;;;30.92;17.13;;;21.00;66.00;;;;;;5083742;28;20028;-79
2022/11/07 21:35:53;;;;;;;35.25;16.00;;;21.00;65.80;;;;;;5066703;28;20021;-77
2022/11/07 21:38:18;;;;;;;29.25;15.75;;;21.00;65.70;;;;;;5067367;28;20059;-79
2022/11/07 21:40:44;;;;;;;32.72;15.73;;;21.00;65.70;;;;;;5051439;28;20512;-80
2022/11/07 21:43:11;;;;;;;32.45;16.15;;;21.00;66.60;;;;;;5068720;28;20043;-80
2022/11/07 21:45:37;;;;;;;29.02;15.18;;;21.00;66.50;;;;;;5070181;28;20036;-81
2022/11/07 21:48:03;;;;;;;32.55;16.67;;;21.00;66.10;;;;;;5069573;28;20028;-78
2022/11/07 21:50:29;;;;;;;30.30;15.45;;;21.00;65.90;;;;;;5070369;28;20028;-79
2022/11/07 21:52:55;;;;;;;30.65;15.50;;;21.00;65.90;;;;;;5068563;28;20041;-79
2022/11/07 21:55:22;;;;;;;33.35;15.57;;;21.00;65.90;;;;;;5053108;28;20033;-79
2022/11/07 21:57:48;;;;;;;32.58;16.48;;;21.00;65.90;;;;;;5069586;28;20054;-79
2022/11/07 22:00:15;;;;;;;28.02;15.27;;;21.00;66.10;;;;;;5068804;28;20024;-79
2022/11/07 22:02:41;;;;;;;32.50;15.60;;;20.90;66.00;;;;;;5066847;28;20044;-79
2022/11/07 22:05:08;;;;;;;27.83;15.90;;;21.00;66.20;;;;;;5069739;28;20032;-79
2022/11/07 22:07:35;;;;;;;27.55;14.95;;;21.00;66.10;;;;;;5070510;28;20099;-79
2022/11/07 22:10:03;;;;;;;25.95;15.55;;;21.00;66.20;;;;;;5066588;28;20055;-78
2022/11/07 22:12:29;;;;;;;28.38;15.80;;;20.90;66.10;;;;;;5065127;28;20028;-78
2022/11/07 22:14:55;;;;;;;28.05;15.38;;;20.90;66.10;;;;;;5070729;28;20111;-79
2022/11/07 22:17:21;;;;;;;24.45;14.45;;;20.90;66.30;;;;;;5066519;28;20036;-80
2022/11/07 22:19:49;;;;;;;26.20;14.82;;;21.00;66.20;;;;;;5066264;28;20040;-80
2022/11/07 22:22:15;;;;;;;28.80;15.23;;;21.00;66.70;;;;;;5060370;28;20025;-79
2022/11/07 22:24:41;;;;;;;31.67;14.77;;;20.90;66.40;;;;;;5069691;28;20552;-79
2022/11/07 22:27:07;;;;;;;29.08;14.77;;;21.00;66.50;;;;;;5070004;28;20033;-79
2022/11/07 22:29:33;;;;;;;28.45;14.25;;;21.00;66.60;;;;;;5069986;28;20054;-80
2022/11/07 22:31:59;;;;;;;26.35;13.95;;;21.00;66.90;;;;;;5070542;28;20052;-80
2022/11/07 22:34:25;;;;;;;24.98;14.10;;;21.00;66.40;;;;;;5068096;28;20024;-81
2022/11/07 22:36:53;;;;;;;28.00;14.10;;;20.90;66.30;;;;;;5066497;28;20508;-79
2022/11/07 22:39:18;;;;;;;32.33;14.85;;;21.00;66.40;;;;;;5070131;28;20048;-79
2022/11/07 22:41:44;;;;;;;25.75;14.45;;;20.90;66.40;;;;;;5076733;23;20045;-77
2022/11/07 22:44:10;;;;;;;24.83;13.93;;;20.90;66.40;;;;;;5064760;28;20067;-78
2022/11/07 22:46:36;;;;;;;26.63;14.30;;;20.90;66.50;;;;;;5068532;28;20021;-81
2022/11/07 22:49:02;;;;;;;24.48;14.85;;;20.90;66.40;;;;;;5046795;28;20068;-78
2022/11/07 22:51:31;;;;;;;26.55;13.85;;;20.90;66.40;;;;;;5061849;28;20032;-79
2022/11/07 22:53:58;;;;;;;24.50;14.10;;;21.00;66.90;;;;;;5064750;28;20390;-78
2022/11/07 22:56:24;;;;;;;23.20;14.38;;;21.00;66.60;;;;;;5050693;28;20040;-80
2022/11/07 22:58:49;;;;;;;23.77;13.18;;;21.00;67.10;;;;;;5034114;28;20386;-77
2022/11/07 23:01:18;;;;;;;21.25;12.95;;;21.00;66.30;;;;;;5049147;28;20089;-78
2022/11/07 23:03:45;;;;;;;25.70;13.05;;;21.00;67.00;;;;;;5054612;28;20103;-75
2022/11/07 23:06:11;;;;;;;23.83;13.55;;;21.00;67.10;;;;;;5052548;28;20029;-76
2022/11/07 23:08:37;;;;;;;21.50;12.23;;;21.00;65.90;;;;;;5053686;28;20047;-76
2022/11/07 23:11:12;;;;;;;22.63;12.15;;;21.00;66.30;;;;;;5053395;28;20056;-79
2022/11/07 23:13:38;;;;;;;26.95;16.20;;;20.90;65.30;;;;;;5055196;28;20032;-80
2022/11/07 23:16:04;;;;;;;24.50;12.98;;;20.90;65.60;;;;;;5051330;28;20692;-81
2022/11/07 23:18:30;;;;;;;26.10;14.90;;;20.90;64.80;;;;;;5059596;28;20037;-84
2022/11/07 23:21:08;;;;;;;25.02;13.95;;;20.90;64.60;;;;;;5058090;28;20021;-77
2022/11/07 23:23:38;;;;;;;29.30;14.23;;;20.90;64.90;;;;;;5050933;28;20055;-78
2022/11/07 23:26:11;;;;;;;26.30;14.20;;;20.90;65.00;;;;;;5054817;28;20470;-78
2022/11/07 23:28:37;;;;;;;25.10;14.07;;;20.90;65.20;;;;;;5054034;28;20074;-79
2022/11/07 23:31:04;;;;;;;22.55;12.85;;;20.90;65.30;;;;;;5058793;28;20029;-78
2022/11/07 23:33:31;;;;;;;20.17;12.68;;;20.90;65.40;;;;;;5060188;28;20120;-78
2022/11/07 23:36:00;;;;;;;23.70;12.65;;;20.90;65.50;;;;;;5055353;28;20113;-79
2022/11/07 23:38:29;;;;;;;22.92;13.23;;;20.90;65.40;;;;;;5059438;28;20027;-79
2022/11/07 23:40:55;;;;;;;19.33;12.20;;;20.90;65.40;;;;;;5044097;28;20037;-78
2022/11/07 23:43:21;;;;;;;22.05;12.05;;;20.80;65.40;;;;;;5057616;28;20048;-79
2022/11/07 23:51:16;;;;;;;24.58;12.55;;;20.90;65.40;;;;;;5061517;28;20037;-78
2022/11/07 23:56:27;;;;;;;24.38;13.70;;;20.90;65.40;;;;;;5068300;28;20085;-77
